This is the latest recevied weather packets stored in our database for station/object OH2NJR. If no packets are shown the sender has not sent any weather packets the latest 10 day(s).
| Time | Temp. | Humidity | Pressure | Rain* | Wind** | Luminosity | Snow |
|---|---|---|---|---|---|---|---|
| 1778037038 | 2.22° C | 78% | 1010.6 hPa | 0 mm | - | - | - |
| 1778035949 | 2.22° C | 78% | 1010.4 hPa | 0 mm | - | - | - |
| 1778034783 | 2.22° C | 78% | 1010.2 hPa | 0 mm | - | - | - |
| 1778033818 | 1.67° C | 78% | 1010.1 hPa | 0 mm | - | - | - |
| 1778032679 | 1.67° C | 77% | 1010.1 hPa | 0 mm | - | - | - |
| 1778031693 | 1.67° C | 78% | 1010 hPa | 0 mm | - | - | - |
| 1778030634 | 2.22° C | 77% | 1010 hPa | 0 mm | - | - | - |
| 1778029457 | 2.22° C | 76% | 1009.9 hPa | 0 mm | - | - | - |
| 1778028358 | 2.78° C | 75% | 1009.3 hPa | 0 mm | - | - | - |
| 1778027322 | 2.78° C | 73% | 1009.2 hPa | 0 mm | - | - | - |
| 1778026289 | 3.33° C | 74% | 1009.1 hPa | 0 mm | - | - | - |
| 1778026284 | 3.33° C | 74% | 1009.1 hPa | 0 mm | - | - | - |
| 1778025168 | 3.33° C | 74% | 1009 hPa | 0 mm | - | - | - |
| 1778024184 | 3.33° C | 73% | 1008.8 hPa | 0 mm | - | - | - |
| 1778023178 | 3.89° C | 72% | 1008.8 hPa | 0 mm | - | - | - |
| 1778022179 | 3.89° C | 70% | 1008.6 hPa | 0 mm | - | - | - |
| 1778021208 | 3.89° C | 71% | 1008.6 hPa | 0 mm | - | - | - |
| 1778020088 | 3.89° C | 70% | 1008.6 hPa | 0 mm | - | - | - |
| 1778019034 | 3.89° C | 68% | 1008.4 hPa | 0 mm | - | - | - |
| 1778017878 | 4.44° C | 67% | 1008.4 hPa | 0 mm | - | - | - |
| 1778016704 | 4.44° C | 65% | 1008.3 hPa | 0 mm | - | - | - |
| 1778015728 | 5° C | 63% | 1008.1 hPa | 0 mm | - | - | - |
| 1778014769 | 5.56° C | 58% | 1007.3 hPa | 0 mm | - | - | - |
| 1778013593 | 6.11° C | 57% | 1007.2 hPa | 0 mm | - | - | - |
| 1778012433 | 6.11° C | 54% | 1007.2 hPa | 0 mm | - | - | - |
* Rain latest hour (hover to see other rain measurements)
** Current wind speed in m/s (hover to see current wind gust speed)